createdAt,value
2018-09-01T00:00:55.623Z,9.90
2018-09-01T00:03:24.134Z,9.90
2018-09-01T00:05:52.646Z,9.90
2018-09-01T00:08:22.559Z,9.90
2018-09-01T00:10:51.053Z,9.90
2018-09-01T00:13:19.565Z,9.80
2018-09-01T00:15:48.057Z,9.80
2018-09-01T00:18:16.596Z,9.80
2018-09-01T00:20:45.127Z,9.70
2018-09-01T00:23:13.623Z,9.70
2018-09-01T00:25:42.123Z,9.70
2018-09-01T00:28:10.614Z,9.70
2018-09-01T00:30:39.280Z,9.60
2018-09-01T00:33:07.682Z,9.60
2018-09-01T00:35:36.216Z,9.60
2018-09-01T00:38:10.163Z,9.60
2018-09-01T00:40:38.690Z,9.60
2018-09-01T00:43:07.227Z,9.60
2018-09-01T00:45:35.739Z,9.60
2018-09-01T00:48:04.285Z,9.50
2018-09-01T00:50:32.804Z,9.50
2018-09-01T00:53:01.319Z,9.40
2018-09-01T00:55:30.719Z,9.30
2018-09-01T00:57:59.266Z,9.40
2018-09-01T01:00:27.782Z,9.30
2018-09-01T01:02:56.299Z,9.30
2018-09-01T01:05:24.829Z,9.30
2018-09-01T01:07:53.461Z,9.20
2018-09-01T01:10:22.009Z,9.20
2018-09-01T01:12:50.522Z,9.10
2018-09-01T01:15:19.543Z,9.00
2018-09-01T01:17:48.017Z,9.10
2018-09-01T01:20:16.494Z,9.00
2018-09-01T01:22:45.035Z,9.00
2018-09-01T01:25:13.498Z,9.00
2018-09-01T01:27:41.997Z,9.00
2018-09-01T01:30:10.566Z,8.90
2018-09-01T01:32:39.123Z,8.90
2018-09-01T01:35:07.611Z,9.00
2018-09-01T01:37:36.757Z,9.00
2018-09-01T01:40:06.046Z,9.00
2018-09-01T01:42:35.850Z,9.00
2018-09-01T01:45:04.681Z,9.00
2018-09-01T01:47:38.414Z,9.10
2018-09-01T01:50:08.011Z,9.10
2018-09-01T01:52:36.557Z,9.10
2018-09-01T01:55:05.064Z,9.10
2018-09-01T02:00:24.876Z,9.00
2018-09-01T02:02:53.390Z,8.90
2018-09-01T02:05:26.108Z,8.80
2018-09-01T02:07:54.622Z,8.80
2018-09-01T02:10:23.121Z,8.80
2018-09-01T02:12:51.674Z,8.70
2018-09-01T02:15:20.153Z,8.70
2018-09-01T02:17:48.719Z,8.60
2018-09-01T02:20:17.186Z,8.60
2018-09-01T02:22:45.640Z,8.60
2018-09-01T02:25:14.206Z,8.50
2018-09-01T02:27:42.703Z,8.50
2018-09-01T02:30:11.207Z,8.40
2018-09-01T02:32:39.741Z,8.40
2018-09-01T02:35:08.342Z,8.40
2018-09-01T02:37:36.794Z,8.50
2018-09-01T02:40:05.399Z,8.60
2018-09-01T02:42:33.895Z,8.70
2018-09-01T02:45:02.419Z,8.70
2018-09-01T02:47:30.905Z,8.70
2018-09-01T02:49:59.437Z,8.70
2018-09-01T02:52:28.065Z,8.60
2018-09-01T02:54:56.610Z,8.50
2018-09-01T02:57:25.130Z,8.50
2018-09-01T02:59:53.644Z,8.60
2018-09-01T03:02:27.423Z,8.70
2018-09-01T03:04:55.939Z,8.70
2018-09-01T03:07:24.438Z,8.70
2018-09-01T03:09:52.929Z,8.70
2018-09-01T03:12:21.398Z,8.70
2018-09-01T03:14:49.898Z,8.70
2018-09-01T03:17:18.362Z,8.70
2018-09-01T03:19:46.890Z,8.70
2018-09-01T03:22:15.846Z,8.60
2018-09-01T03:24:44.442Z,8.60
2018-09-01T03:27:12.913Z,8.60
2018-09-01T03:29:41.402Z,8.50
2018-09-01T03:32:09.906Z,8.40
2018-09-01T03:34:38.406Z,8.40
2018-09-01T03:37:06.921Z,8.30
2018-09-01T03:39:35.369Z,8.30
2018-09-01T03:42:03.901Z,8.30
2018-09-01T03:44:32.387Z,8.40
2018-09-01T03:47:01.394Z,8.30
2018-09-01T03:49:29.935Z,8.30
2018-09-01T03:51:58.433Z,8.30
2018-09-01T03:54:26.947Z,8.10
2018-09-01T03:56:55.455Z,8.00
2018-09-01T03:59:23.962Z,7.90
2018-09-01T04:01:52.468Z,7.90
2018-09-01T04:04:20.979Z,7.90
2018-09-01T04:06:49.477Z,8.00
2018-09-01T04:09:17.955Z,7.90
2018-09-01T04:11:46.590Z,7.80
2018-09-01T04:14:15.209Z,7.80
2018-09-01T04:16:43.732Z,7.80
2018-09-01T04:19:17.649Z,7.70
2018-09-01T04:21:47.670Z,7.70
2018-09-01T04:24:16.305Z,7.60
2018-09-01T04:26:45.469Z,7.50
2018-09-01T04:29:14.171Z,7.50
2018-09-01T04:31:42.732Z,7.40
2018-09-01T04:34:11.206Z,7.40
2018-09-01T04:36:39.767Z,7.40
2018-09-01T04:39:10.044Z,7.50
2018-09-01T04:41:38.547Z,7.50
2018-09-01T04:44:07.059Z,7.60
2018-09-01T04:46:35.606Z,7.70
2018-09-01T04:49:04.148Z,7.70
2018-09-01T04:51:32.642Z,7.80
2018-09-01T04:54:01.209Z,7.80
2018-09-01T04:56:29.721Z,7.80
2018-09-01T04:58:58.222Z,7.90
2018-09-01T05:01:26.772Z,7.90
2018-09-01T05:03:55.246Z,8.00
2018-09-01T05:06:23.746Z,8.00
2018-09-01T05:08:52.270Z,8.00
2018-09-01T05:11:20.730Z,8.10
2018-09-01T05:13:49.338Z,8.10
2018-09-01T05:16:18.079Z,8.20
2018-09-01T05:18:46.683Z,8.30
2018-09-01T05:21:15.209Z,8.40
2018-09-01T05:23:43.698Z,8.50
2018-09-01T05:26:12.257Z,8.60
2018-09-01T05:28:40.818Z,8.60
2018-09-01T05:31:09.337Z,8.70
2018-09-01T05:33:37.990Z,8.80
2018-09-01T05:36:06.552Z,8.80
2018-09-01T05:38:35.014Z,8.90
2018-09-01T05:41:03.550Z,9.00
2018-09-01T05:43:32.047Z,9.00
2018-09-01T05:46:00.554Z,9.10
2018-09-01T05:48:29.030Z,9.10
2018-09-01T05:50:57.559Z,9.10
2018-09-01T05:53:26.037Z,9.20
2018-09-01T05:55:54.626Z,9.30
2018-09-01T05:58:23.162Z,9.40
2018-09-01T06:00:51.807Z,9.60
2018-09-01T06:03:20.341Z,9.70
2018-09-01T06:05:49.088Z,9.90
2018-09-01T06:08:18.054Z,10.10
2018-09-01T06:10:46.655Z,10.20
2018-09-01T06:13:21.646Z,10.40
2018-09-01T06:15:50.221Z,10.60
2018-09-01T06:18:18.753Z,10.70
2018-09-01T06:20:47.269Z,10.80
2018-09-01T06:23:15.818Z,10.90
2018-09-01T06:25:44.313Z,11.00
2018-09-01T06:28:17.966Z,11.10
2018-09-01T06:30:48.771Z,11.20
2018-09-01T06:33:17.341Z,11.30
2018-09-01T06:35:45.837Z,11.50
2018-09-01T06:38:14.402Z,11.70
2018-09-01T06:40:42.941Z,12.00
2018-09-01T06:43:11.607Z,12.40
2018-09-01T06:45:40.086Z,14.40
2018-09-01T06:48:08.635Z,16.90
2018-09-01T06:50:37.478Z,19.40
2018-09-01T06:53:06.396Z,21.40
2018-09-01T06:55:35.135Z,22.10
2018-09-01T06:58:03.755Z,22.10
2018-09-01T07:00:32.360Z,23.10
2018-09-01T07:03:00.920Z,24.10
2018-09-01T07:05:29.422Z,24.90
2018-09-01T07:07:58.110Z,25.60
2018-09-01T07:10:26.611Z,26.20
2018-09-01T07:12:55.134Z,26.80
2018-09-01T07:15:23.612Z,27.00
2018-09-01T07:17:52.127Z,27.00
2018-09-01T07:20:20.637Z,26.30
2018-09-01T07:22:49.195Z,26.00
2018-09-01T07:25:17.682Z,26.10
2018-09-01T07:27:46.317Z,26.80
2018-09-01T07:30:14.978Z,26.50
2018-09-01T07:32:43.471Z,26.80
2018-09-01T07:35:11.989Z,27.50
2018-09-01T07:37:40.570Z,28.40
2018-09-01T07:40:09.095Z,28.00
2018-09-01T07:42:37.879Z,28.30
2018-09-01T07:45:06.592Z,29.20
2018-09-01T07:47:35.073Z,29.40
2018-09-01T07:50:03.642Z,28.50
2018-09-01T07:52:32.145Z,29.20
2018-09-01T07:55:00.726Z,29.50
2018-09-01T07:57:29.229Z,28.30
2018-09-01T07:59:57.759Z,27.30
2018-09-01T08:02:26.267Z,28.00
2018-09-01T08:04:54.781Z,28.20
2018-09-01T08:07:23.290Z,28.60
2018-09-01T08:09:51.815Z,29.20
2018-09-01T08:12:20.301Z,29.50
2018-09-01T08:14:48.805Z,30.00
2018-09-01T08:17:17.300Z,29.70
2018-09-01T08:19:45.855Z,28.80
2018-09-01T08:22:14.350Z,29.20
2018-09-01T08:24:42.871Z,30.10
2018-09-01T08:27:11.542Z,30.70
2018-09-01T08:29:40.033Z,31.60
2018-09-01T08:32:09.407Z,31.90
2018-09-01T08:34:37.918Z,32.50
2018-09-01T08:37:06.434Z,32.70
2018-09-01T08:39:35.264Z,32.50
2018-09-01T08:42:03.826Z,32.00
2018-09-01T08:44:32.340Z,31.50
2018-09-01T08:47:00.840Z,31.60
2018-09-01T08:49:29.493Z,31.60
2018-09-01T08:51:58.012Z,32.20
2018-09-01T08:54:26.564Z,32.20
2018-09-01T08:56:55.151Z,32.50
2018-09-01T08:59:23.663Z,32.30
2018-09-01T09:01:52.190Z,31.80
2018-09-01T09:04:20.697Z,31.60
2018-09-01T09:06:49.317Z,31.60
2018-09-01T09:09:17.995Z,31.60
2018-09-01T09:11:46.470Z,31.00
2018-09-01T09:14:14.963Z,31.00
2018-09-01T09:16:43.534Z,30.00
2018-09-01T09:19:12.987Z,30.20
2018-09-01T09:21:41.464Z,30.70
2018-09-01T09:24:10.143Z,30.70
2018-09-01T09:26:38.669Z,29.70
2018-09-01T09:29:07.215Z,29.70
2018-09-01T09:31:36.367Z,30.20
2018-09-01T09:34:04.956Z,29.40
2018-09-01T09:36:33.474Z,29.30
2018-09-01T09:39:02.012Z,29.40
2018-09-01T09:41:30.501Z,29.60
2018-09-01T09:43:59.031Z,29.60
2018-09-01T09:46:27.534Z,30.00
2018-09-01T09:48:56.102Z,30.20
2018-09-01T09:51:24.602Z,30.70
2018-09-01T09:53:53.078Z,31.30
2018-09-01T09:56:21.721Z,30.90
2018-09-01T09:58:50.330Z,31.10
2018-09-01T10:01:24.267Z,29.90
2018-09-01T10:03:52.853Z,30.00
2018-09-01T10:06:21.363Z,29.90
2018-09-01T10:08:49.839Z,29.40
2018-09-01T10:11:18.766Z,28.50
2018-09-01T10:13:47.277Z,28.50
2018-09-01T10:16:15.791Z,29.10
2018-09-01T10:18:44.302Z,29.50
2018-09-01T10:21:12.814Z,29.20
2018-09-01T10:23:41.326Z,29.60
2018-09-01T10:26:09.838Z,30.40
2018-09-01T10:28:39.899Z,30.00
2018-09-01T10:31:09.796Z,30.30
2018-09-01T10:33:39.172Z,30.30
2018-09-01T10:36:08.002Z,29.50
2018-09-01T10:38:36.695Z,27.70
2018-09-01T10:41:05.471Z,26.50
2018-09-01T10:43:34.055Z,26.70
2018-09-01T10:46:03.759Z,27.00
2018-09-01T10:48:32.303Z,27.90
2018-09-01T10:51:00.893Z,28.40
2018-09-01T10:53:29.731Z,28.70
2018-09-01T10:55:58.211Z,28.30
2018-09-01T10:58:26.754Z,27.00
2018-09-01T11:00:55.268Z,26.80
2018-09-01T11:03:23.787Z,26.60
2018-09-01T11:05:52.267Z,26.10
2018-09-01T11:08:20.849Z,25.30
2018-09-01T11:10:49.383Z,24.80
2018-09-01T11:13:17.939Z,24.50
2018-09-01T11:15:46.476Z,24.00
2018-09-01T11:18:15.069Z,23.50
2018-09-01T11:20:43.783Z,23.10
2018-09-01T11:23:12.773Z,22.80
2018-09-01T11:25:42.845Z,22.80
2018-09-01T11:28:11.700Z,23.30
2018-09-01T11:30:40.631Z,23.80
2018-09-01T11:33:09.522Z,24.00
2018-09-01T11:35:38.080Z,24.20
2018-09-01T11:38:06.667Z,24.30
2018-09-01T11:40:35.359Z,24.20
2018-09-01T11:43:04.147Z,24.20
2018-09-01T11:45:32.558Z,24.00
2018-09-01T11:48:01.169Z,23.60
2018-09-01T11:50:29.707Z,23.60
2018-09-01T11:52:58.394Z,23.70
2018-09-01T11:55:26.839Z,23.70
2018-09-01T11:57:55.362Z,23.70
2018-09-01T12:00:23.856Z,23.80
2018-09-01T12:02:52.363Z,23.70
2018-09-01T12:05:20.864Z,23.60
2018-09-01T12:07:49.361Z,23.50
2018-09-01T12:10:18.018Z,23.30
2018-09-01T12:12:46.520Z,23.30
2018-09-01T12:15:15.058Z,23.40
2018-09-01T12:17:43.540Z,23.40
2018-09-01T12:20:12.065Z,23.60
2018-09-01T12:22:40.582Z,23.60
2018-09-01T12:25:09.103Z,23.70
2018-09-01T12:27:37.610Z,23.70
2018-09-01T12:30:06.458Z,23.40
2018-09-01T12:32:35.059Z,23.20
2018-09-01T12:35:03.703Z,23.40
2018-09-01T12:37:32.187Z,23.40
2018-09-01T12:40:00.773Z,23.30
2018-09-01T12:42:29.272Z,23.20
2018-09-01T12:44:57.800Z,23.40
2018-09-01T12:47:26.324Z,23.60
2018-09-01T12:49:54.791Z,23.70
2018-09-01T12:52:23.342Z,23.50
2018-09-01T12:54:51.830Z,23.20
2018-09-01T12:57:20.401Z,23.20
2018-09-01T12:59:48.942Z,23.00
2018-09-01T13:02:23.971Z,22.90
2018-09-01T13:04:52.472Z,22.90
2018-09-01T13:07:21.034Z,22.80
2018-09-01T13:09:49.547Z,22.60
2018-09-01T13:12:18.099Z,22.60
2018-09-01T13:14:46.606Z,22.50
2018-09-01T13:17:15.126Z,22.40
2018-09-01T13:19:44.188Z,22.50
2018-09-01T13:22:12.678Z,22.70
2018-09-01T13:24:41.142Z,22.70
2018-09-01T13:27:09.702Z,22.30
2018-09-01T13:29:38.217Z,22.20
2018-09-01T13:32:07.058Z,22.10
2018-09-01T13:34:35.622Z,22.10
2018-09-01T13:37:04.204Z,22.10
2018-09-01T13:39:32.732Z,22.10
2018-09-01T13:42:01.389Z,22.10
2018-09-01T13:44:29.946Z,22.10
2018-09-01T13:46:58.434Z,22.10
2018-09-01T13:49:26.985Z,22.10
2018-09-01T13:51:55.484Z,21.90
2018-09-01T13:54:24.037Z,21.40
2018-09-01T13:56:52.545Z,21.60
2018-09-01T13:59:21.036Z,21.80
2018-09-01T14:01:49.567Z,21.80
2018-09-01T14:04:18.076Z,22.00
2018-09-01T14:06:46.538Z,22.10
2018-09-01T14:09:15.095Z,22.20
2018-09-01T14:11:43.581Z,22.10
2018-09-01T14:14:12.235Z,22.10
2018-09-01T14:16:40.686Z,22.10
2018-09-01T14:19:09.197Z,22.10
2018-09-01T14:21:37.718Z,22.10
2018-09-01T14:24:06.284Z,22.00
2018-09-01T14:26:34.777Z,22.00
2018-09-01T14:29:03.322Z,22.00
2018-09-01T14:31:32.247Z,21.90
2018-09-01T14:34:00.859Z,21.80
2018-09-01T14:36:29.495Z,21.70
2018-09-01T14:38:58.034Z,21.70
2018-09-01T14:41:26.594Z,21.70
2018-09-01T14:43:55.121Z,21.80
2018-09-01T14:46:23.690Z,21.80
2018-09-01T14:48:52.183Z,21.80
2018-09-01T14:51:20.740Z,21.80
2018-09-01T14:53:49.255Z,21.80
2018-09-01T14:56:17.776Z,21.80
2018-09-01T14:58:46.281Z,21.90
2018-09-01T15:01:14.814Z,21.90
2018-09-01T15:03:43.275Z,21.90
2018-09-01T15:06:11.873Z,21.90
2018-09-01T15:08:40.386Z,22.00
2018-09-01T15:11:08.971Z,21.80
2018-09-01T15:13:37.468Z,21.80
2018-09-01T15:16:06.071Z,21.80
2018-09-01T15:18:34.614Z,21.70
2018-09-01T15:21:03.144Z,21.70
2018-09-01T15:23:31.677Z,21.70
2018-09-01T15:26:00.214Z,21.70
2018-09-01T15:28:28.881Z,21.80
2018-09-01T15:30:57.375Z,21.90
2018-09-01T15:33:25.910Z,21.80
2018-09-01T15:35:54.434Z,21.70
2018-09-01T15:38:23.037Z,21.70
2018-09-01T15:40:51.630Z,21.50
2018-09-01T15:43:20.426Z,21.50
2018-09-01T15:45:48.967Z,21.40
2018-09-01T15:48:17.565Z,21.40
2018-09-01T15:50:46.134Z,21.40
2018-09-01T15:53:14.663Z,21.40
2018-09-01T15:55:43.199Z,21.40
2018-09-01T15:58:11.729Z,21.40
2018-09-01T16:00:40.274Z,21.40
2018-09-01T16:03:08.820Z,21.30
2018-09-01T16:05:37.370Z,21.30
2018-09-01T16:08:06.219Z,21.30
2018-09-01T16:10:34.793Z,21.30
2018-09-01T16:13:03.362Z,21.40
2018-09-01T16:15:31.902Z,21.50
2018-09-01T16:18:00.432Z,21.40
2018-09-01T16:20:28.923Z,21.30
2018-09-01T16:22:57.487Z,21.30
2018-09-01T16:25:25.979Z,21.30
2018-09-01T16:27:54.565Z,21.20
2018-09-01T16:30:23.062Z,21.20
2018-09-01T16:32:51.611Z,21.30
2018-09-01T16:35:20.156Z,21.30
2018-09-01T16:37:48.742Z,21.40
2018-09-01T16:40:17.363Z,21.40
2018-09-01T16:42:45.875Z,21.30
2018-09-01T16:45:15.611Z,21.20
2018-09-01T16:47:44.110Z,21.30
2018-09-01T16:50:12.670Z,21.20
2018-09-01T16:52:41.177Z,21.20
2018-09-01T16:55:09.818Z,21.20
2018-09-01T16:57:38.312Z,21.10
2018-09-01T17:00:07.014Z,21.00
2018-09-01T17:02:35.542Z,20.90
2018-09-01T17:05:04.234Z,20.80
2018-09-01T17:07:32.742Z,20.70
2018-09-01T17:10:01.339Z,20.50
2018-09-01T17:12:29.870Z,20.30
2018-09-01T17:14:58.500Z,20.10
2018-09-01T17:17:27.019Z,19.90
2018-09-01T17:19:55.626Z,19.70
2018-09-01T17:22:24.114Z,19.60
2018-09-01T17:24:52.594Z,19.40
2018-09-01T17:27:21.090Z,19.40
2018-09-01T17:29:49.590Z,19.30
2018-09-01T17:32:18.178Z,19.20
2018-09-01T17:34:46.677Z,19.20
2018-09-01T17:37:15.330Z,19.10
2018-09-01T17:39:43.901Z,19.00
2018-09-01T17:42:12.442Z,18.90
2018-09-01T17:44:40.926Z,18.80
2018-09-01T17:47:09.589Z,18.70
2018-09-01T17:49:38.170Z,18.60
2018-09-01T17:52:06.740Z,18.50
2018-09-01T17:54:35.357Z,18.40
2018-09-01T17:57:04.076Z,18.30
2018-09-01T17:59:32.585Z,18.20
2018-09-01T18:02:01.151Z,18.10
2018-09-01T18:04:29.690Z,18.00
2018-09-01T18:06:58.249Z,17.90
2018-09-01T18:09:27.172Z,17.80
2018-09-01T18:11:55.778Z,17.70
2018-09-01T18:14:24.319Z,17.60
2018-09-01T18:16:52.890Z,17.60
2018-09-01T18:19:21.418Z,17.50
2018-09-01T18:21:49.933Z,17.50
2018-09-01T18:24:18.451Z,17.40
2018-09-01T18:26:46.933Z,17.30
2018-09-01T18:29:15.532Z,17.20
2018-09-01T18:31:44.098Z,17.10
2018-09-01T18:34:12.606Z,17.10
2018-09-01T18:36:41.136Z,17.00
2018-09-01T18:39:12.237Z,16.90
2018-09-01T18:41:40.767Z,16.80
2018-09-01T18:44:09.366Z,16.70
2018-09-01T18:46:37.942Z,16.60
2018-09-01T18:49:06.567Z,16.50
2018-09-01T18:51:35.087Z,16.40
2018-09-01T18:54:03.690Z,16.40
2018-09-01T18:56:32.258Z,16.30
2018-09-01T18:59:00.846Z,16.20
2018-09-01T19:01:29.328Z,16.10
2018-09-01T19:03:57.875Z,16.00
2018-09-01T19:06:26.489Z,15.90
2018-09-01T19:08:55.039Z,15.90
2018-09-01T19:11:23.547Z,15.80
2018-09-01T19:13:53.140Z,15.80
2018-09-01T19:16:21.535Z,15.70
2018-09-01T19:18:50.069Z,15.60
2018-09-01T19:21:18.662Z,15.60
2018-09-01T19:23:47.113Z,15.50
2018-09-01T19:26:15.686Z,15.50
2018-09-01T19:28:44.328Z,15.40
2018-09-01T19:31:12.910Z,15.40
2018-09-01T19:33:41.433Z,15.40
2018-09-01T19:36:09.995Z,15.40
2018-09-01T19:38:38.561Z,15.40
2018-09-01T19:41:07.139Z,15.30
2018-09-01T19:43:35.690Z,15.20
2018-09-01T19:46:04.282Z,15.10
2018-09-01T19:48:32.761Z,15.00
2018-09-01T19:51:01.317Z,14.90
2018-09-01T19:53:29.798Z,14.80
2018-09-01T19:55:58.376Z,14.70
2018-09-01T19:58:26.922Z,14.60
2018-09-01T20:00:55.433Z,14.60
2018-09-01T20:03:24.132Z,14.50
2018-09-01T20:05:52.919Z,14.50
2018-09-01T20:08:21.487Z,14.40
2018-09-01T20:10:50.231Z,14.40
2018-09-01T20:13:18.838Z,14.30
2018-09-01T20:15:47.428Z,14.30
2018-09-01T20:18:15.978Z,14.20
2018-09-01T20:20:44.509Z,14.20
2018-09-01T20:23:13.058Z,14.20
2018-09-01T20:25:41.579Z,14.10
2018-09-01T20:28:12.180Z,14.10
2018-09-01T20:30:41.228Z,14.00
2018-09-01T20:33:09.731Z,13.90
2018-09-01T20:35:43.525Z,13.80
2018-09-01T20:38:12.122Z,13.70
2018-09-01T20:40:40.686Z,13.50
2018-09-01T20:43:09.226Z,13.40
2018-09-01T20:45:37.759Z,13.30
2018-09-01T20:48:06.343Z,13.30
2018-09-01T20:50:35.285Z,13.20
2018-09-01T20:53:04.837Z,13.20
2018-09-01T20:55:33.406Z,13.20
2018-09-01T20:58:02.022Z,13.20
2018-09-01T21:00:30.522Z,13.20
2018-09-01T21:02:59.053Z,13.10
2018-09-01T21:05:27.575Z,13.10
2018-09-01T21:07:56.176Z,13.10
2018-09-01T21:10:24.707Z,12.90
2018-09-01T21:12:53.178Z,12.70
2018-09-01T21:15:21.719Z,12.70
2018-09-01T21:17:50.231Z,12.60
2018-09-01T21:20:18.745Z,12.50
2018-09-01T21:22:47.244Z,12.50
2018-09-01T21:25:15.761Z,12.40
2018-09-01T21:27:44.246Z,12.30
2018-09-01T21:30:12.739Z,12.30
2018-09-01T21:32:41.269Z,12.30
2018-09-01T21:35:09.813Z,12.30
2018-09-01T21:37:40.765Z,12.30
2018-09-01T21:40:09.355Z,12.30
2018-09-01T21:42:37.883Z,12.30
2018-09-01T21:45:07.982Z,12.20
2018-09-01T21:47:36.782Z,12.20
2018-09-01T21:50:05.970Z,12.20
2018-09-01T21:52:34.488Z,12.20
2018-09-01T21:55:03.057Z,12.10
2018-09-01T21:57:31.542Z,12.00
2018-09-01T22:00:00.121Z,12.00
2018-09-01T22:02:28.642Z,12.00
2018-09-01T22:05:02.503Z,12.00
2018-09-01T22:07:31.019Z,11.90
2018-09-01T22:09:59.542Z,11.80
2018-09-01T22:12:28.081Z,11.80
2018-09-01T22:14:56.611Z,11.80
2018-09-01T22:17:25.142Z,11.80
2018-09-01T22:19:53.644Z,11.80
2018-09-01T22:22:22.269Z,11.70
2018-09-01T22:24:50.810Z,11.70
2018-09-01T22:27:19.373Z,11.70
2018-09-01T22:29:47.957Z,11.70
2018-09-01T22:32:16.515Z,11.80
2018-09-01T22:34:45.005Z,11.80
2018-09-01T22:37:13.545Z,11.90
2018-09-01T22:39:42.046Z,11.90
2018-09-01T22:42:10.622Z,11.80
2018-09-01T22:44:39.135Z,11.80
2018-09-01T22:47:10.312Z,11.70
2018-09-01T22:49:38.793Z,11.80
2018-09-01T22:52:07.318Z,11.70
2018-09-01T22:54:35.824Z,11.60
2018-09-01T22:57:04.620Z,11.60
2018-09-01T22:59:33.097Z,11.50
2018-09-01T23:02:01.637Z,11.60
2018-09-01T23:04:30.165Z,11.70
2018-09-01T23:06:58.651Z,11.70
2018-09-01T23:09:27.169Z,11.70
2018-09-01T23:11:55.662Z,11.60
2018-09-01T23:14:24.275Z,11.60
2018-09-01T23:16:52.742Z,11.60
2018-09-01T23:19:21.333Z,11.50
2018-09-01T23:21:49.830Z,11.50
2018-09-01T23:24:18.383Z,11.50
2018-09-01T23:26:46.874Z,11.50
2018-09-01T23:29:15.378Z,11.40
2018-09-01T23:31:43.886Z,11.40
2018-09-01T23:34:12.405Z,11.40
2018-09-01T23:36:40.953Z,11.30
2018-09-01T23:39:10.698Z,11.20
2018-09-01T23:41:39.291Z,11.10
2018-09-01T23:44:08.102Z,11.10
2018-09-01T23:46:36.866Z,11.00
2018-09-01T23:49:05.657Z,11.00
2018-09-01T23:51:34.265Z,10.90
2018-09-01T23:54:02.866Z,10.80
2018-09-01T23:56:31.401Z,10.80
2018-09-01T23:58:59.894Z,10.80
